Time;durP1;ratioP1;P1;durP2;ratioP2;P2;SDS_P1;SDS_P2;PMS_P1;PMS_P2;Temp;Humidity;BMP_temperature;BMP_pressure;BME280_temperature;BME280_humidity;BME280_pressure;Samples;Min_cycle;Max_cycle;Signal;HPM_P1;HPM_P2
2024/01/03 00:01:23;;;;;;;2.50;1.80;;;7.60;99.90;;;;;;5006129;28;20034;-48
2024/01/03 00:03:51;;;;;;;1.83;1.73;;;7.60;99.90;;;;;;5003173;28;20037;-53
2024/01/03 00:06:17;;;;;;;1.83;1.70;;;7.60;99.90;;;;;;5004862;28;20022;-51
2024/01/03 00:08:43;;;;;;;2.17;1.95;;;7.60;99.90;;;;;;5003420;28;20034;-51
2024/01/03 00:11:19;;;;;;;3.53;1.95;;;7.60;99.90;;;;;;5002890;28;20030;-48
2024/01/03 00:13:51;;;;;;;1.08;0.98;;;7.60;99.90;;;;;;5005023;28;20609;-48
2024/01/03 00:16:22;;;;;;;2.78;1.17;;;7.70;99.90;;;;;;5003326;28;20495;-49
2024/01/03 00:18:54;;;;;;;1.50;1.20;;;7.70;99.90;;;;;;5001635;28;20025;-50
2024/01/03 00:21:27;;;;;;;2.40;0.85;;;7.80;99.90;;;;;;5002755;28;20037;-56
2024/01/03 00:24:03;;;;;;;2.05;1.08;;;7.80;99.90;;;;;;5006154;28;20419;-50
2024/01/03 00:26:30;;;;;;;;;;;7.90;99.90;;;;;;5002576;28;20569;-51
2024/01/03 00:28:57;;;;;;;0.73;0.60;;;8.00;99.90;;;;;;5000099;28;19917;-48
2024/01/03 00:31:34;;;;;;;3.40;0.85;;;8.00;99.90;;;;;;5003258;28;20026;-53
2024/01/03 00:33:59;;;;;;;4.38;1.05;;;8.10;99.90;;;;;;4999186;28;20046;-49
2024/01/03 00:36:25;;;;;;;2.42;0.90;;;8.10;99.90;;;;;;5002718;28;20120;-50
2024/01/03 00:38:51;;;;;;;0.80;0.63;;;8.20;99.90;;;;;;5002799;28;20026;-52
2024/01/03 00:41:17;;;;;;;4.90;1.17;;;8.20;99.90;;;;;;5002066;28;20034;-50
2024/01/03 00:43:42;;;;;;;0.80;0.70;;;8.20;99.90;;;;;;5002478;28;20041;-53
2024/01/03 00:46:08;;;;;;;3.85;1.13;;;8.20;99.90;;;;;;5001183;28;20026;-50
2024/01/03 00:48:35;;;;;;;2.22;1.00;;;8.20;99.90;;;;;;5001433;28;20498;-48
2024/01/03 00:51:02;;;;;;;0.95;0.80;;;8.20;99.90;;;;;;5000348;28;20028;-52
2024/01/03 00:53:28;;;;;;;1.55;1.02;;;8.20;99.90;;;;;;5002062;28;20038;-51
2024/01/03 00:55:54;;;;;;;4.00;1.38;;;8.20;99.90;;;;;;4999269;28;20513;-54
2024/01/03 00:58:20;;;;;;;2.63;1.10;;;8.30;99.90;;;;;;5000946;28;20026;-49
2024/01/03 01:00:46;;;;;;;5.80;0.88;;;8.30;99.90;;;;;;5002415;28;20489;-52
2024/01/03 01:03:12;;;;;;;2.60;0.75;;;8.30;99.90;;;;;;5000253;28;20056;-53
2024/01/03 01:05:38;;;;;;;4.53;1.05;;;8.30;99.90;;;;;;5002738;28;20061;-50
2024/01/03 01:08:04;;;;;;;3.97;1.02;;;8.30;99.90;;;;;;5002346;28;20030;-53
2024/01/03 01:10:30;;;;;;;1.33;0.63;;;8.30;99.90;;;;;;4996473;28;20049;-54
2024/01/03 01:12:56;;;;;;;3.92;0.93;;;8.30;99.90;;;;;;4995730;28;20026;-51
2024/01/03 01:15:22;;;;;;;3.97;1.02;;;8.30;99.90;;;;;;5003640;28;20026;-47
2024/01/03 01:17:47;;;;;;;7.28;1.30;;;8.30;99.90;;;;;;4995856;28;20105;-49
2024/01/03 01:20:13;;;;;;;2.58;1.00;;;8.30;99.90;;;;;;4998873;28;20168;-49
2024/01/03 01:22:39;;;;;;;3.03;0.93;;;8.30;99.90;;;;;;4998329;28;20036;-55
2024/01/03 01:25:05;;;;;;;5.18;1.02;;;8.30;99.90;;;;;;4998190;28;20026;-49
2024/01/03 01:27:30;;;;;;;6.00;1.10;;;8.30;99.90;;;;;;4997459;28;20083;-50
2024/01/03 01:29:56;;;;;;;6.25;1.00;;;8.30;99.90;;;;;;5000728;28;20065;-52
2024/01/03 01:32:21;;;;;;;5.10;1.25;;;8.40;99.90;;;;;;4998916;28;20048;-50
2024/01/03 01:34:47;;;;;;;2.72;0.73;;;8.40;99.90;;;;;;4998948;28;20479;-52
2024/01/03 01:37:13;;;;;;;3.33;0.95;;;8.40;99.90;;;;;;4999656;28;20038;-54
2024/01/03 01:39:38;;;;;;;5.35;0.82;;;8.40;99.90;;;;;;4996970;28;20108;-50
2024/01/03 01:42:04;;;;;;;3.30;1.10;;;8.50;99.90;;;;;;4997655;28;20023;-50
2024/01/03 01:44:29;;;;;;;3.55;1.10;;;8.50;99.90;;;;;;4999252;28;20104;-51
2024/01/03 01:46:56;;;;;;;1.13;0.57;;;8.40;99.90;;;;;;4996253;28;20117;-50
2024/01/03 01:49:22;;;;;;;6.20;1.13;;;8.40;99.90;;;;;;5000338;28;20041;-52
2024/01/03 01:51:48;;;;;;;4.00;1.13;;;8.50;99.90;;;;;;4998185;28;20592;-54
2024/01/03 01:54:15;;;;;;;2.15;1.10;;;8.40;99.90;;;;;;5001062;28;20033;-51
2024/01/03 01:56:41;;;;;;;9.13;1.45;;;8.40;99.90;;;;;;4996539;28;20628;-47
2024/01/03 01:59:07;;;;;;;3.03;0.80;;;8.50;99.90;;;;;;4998347;28;20060;-48
2024/01/03 02:01:34;;;;;;;2.75;1.02;;;8.40;99.90;;;;;;5002578;28;20128;-52
2024/01/03 02:04:03;;;;;;;8.77;1.15;;;8.40;99.90;;;;;;4999426;28;20033;-53
2024/01/03 02:06:29;;;;;;;3.60;0.88;;;8.40;99.90;;;;;;5001735;28;20030;-49
2024/01/03 02:08:54;;;;;;;4.30;1.08;;;8.40;99.90;;;;;;5002146;28;20501;-48
2024/01/03 02:11:20;;;;;;;5.03;1.02;;;8.40;99.90;;;;;;5002372;28;20032;-50
2024/01/03 02:13:48;;;;;;;1.15;0.63;;;8.40;99.90;;;;;;5003041;28;20126;-47
2024/01/03 02:16:14;;;;;;;3.13;1.10;;;8.50;99.90;;;;;;4997449;28;20040;-49
2024/01/03 02:18:41;;;;;;;6.50;0.95;;;8.50;99.90;;;;;;5003325;28;20046;-48
2024/01/03 02:21:13;;;;;;;1.10;0.60;;;8.40;99.90;;;;;;4998755;28;20105;-48
2024/01/03 02:23:38;;;;;;;2.90;0.90;;;8.40;99.90;;;;;;5000019;28;20022;-52
2024/01/03 02:26:04;;;;;;;4.25;0.90;;;8.40;99.90;;;;;;5000786;28;20040;-53
2024/01/03 02:28:29;;;;;;;1.70;0.80;;;8.40;99.90;;;;;;5001099;28;20128;-54
2024/01/03 02:30:55;;;;;;;3.63;0.90;;;8.40;99.90;;;;;;4996431;28;20604;-52
2024/01/03 02:33:21;;;;;;;1.15;0.68;;;8.40;99.90;;;;;;5000803;28;20520;-52
2024/01/03 02:35:46;;;;;;;0.85;0.70;;;8.40;99.90;;;;;;5001158;28;20034;-52
2024/01/03 02:38:12;;;;;;;1.50;0.57;;;8.40;99.90;;;;;;4999036;28;20045;-52
2024/01/03 02:40:37;;;;;;;5.32;1.08;;;8.30;99.90;;;;;;4985180;28;20034;-50
2024/01/03 02:43:03;;;;;;;2.00;1.00;;;8.30;99.90;;;;;;4998594;28;20033;-56
2024/01/03 02:45:29;;;;;;;4.00;0.90;;;8.30;99.90;;;;;;4998356;28;20031;-55
2024/01/03 02:47:55;;;;;;;2.97;0.85;;;8.30;99.90;;;;;;5003228;28;20394;-53
2024/01/03 02:50:20;;;;;;;0.65;0.55;;;8.30;99.90;;;;;;5002854;28;20565;-49
2024/01/03 02:52:46;;;;;;;8.35;0.98;;;8.30;99.90;;;;;;5003348;28;20027;-51
2024/01/03 02:55:11;;;;;;;4.97;0.95;;;8.30;99.90;;;;;;5003758;28;20022;-53
2024/01/03 02:57:37;;;;;;;4.97;1.00;;;8.30;99.90;;;;;;5003642;28;20453;-56
2024/01/03 03:00:03;;;;;;;4.65;1.10;;;8.20;99.90;;;;;;5002347;28;20030;-53
2024/01/03 03:02:28;;;;;;;4.88;1.50;;;8.30;99.90;;;;;;5006032;28;20038;-52
2024/01/03 03:04:54;;;;;;;1.42;0.43;;;8.30;99.90;;;;;;5002115;28;20513;-54
2024/01/03 03:07:20;;;;;;;2.72;0.68;;;8.20;99.90;;;;;;5004416;28;20590;-55
2024/01/03 03:09:45;;;;;;;1.30;0.65;;;8.20;99.90;;;;;;5006034;28;20034;-51
2024/01/03 03:12:11;;;;;;;1.77;0.75;;;8.20;99.90;;;;;;5002790;28;20110;-51
2024/01/03 03:14:36;;;;;;;2.90;0.47;;;8.20;99.90;;;;;;5004127;28;20109;-54
2024/01/03 03:17:02;;;;;;;0.73;0.40;;;8.20;99.90;;;;;;4999261;28;20438;-52
2024/01/03 03:19:28;;;;;;;0.57;0.30;;;8.20;99.90;;;;;;5006639;28;20025;-51
2024/01/03 03:21:53;;;;;;;2.05;0.50;;;8.10;99.90;;;;;;5004810;28;20033;-51
2024/01/03 03:24:19;;;;;;;3.40;0.43;;;8.10;99.90;;;;;;5003886;28;20520;-54
2024/01/03 03:26:44;;;;;;;2.30;0.75;;;8.00;99.90;;;;;;5004076;28;20026;-55
2024/01/03 03:29:10;;;;;;;0.68;0.45;;;8.00;99.90;;;;;;5001742;28;20041;-51
2024/01/03 03:31:35;;;;;;;1.85;0.55;;;8.00;99.90;;;;;;5003300;28;20038;-52
2024/01/03 03:34:01;;;;;;;1.80;0.55;;;8.00;99.90;;;;;;5001286;28;20112;-55
2024/01/03 03:36:27;;;;;;;1.48;0.63;;;8.00;99.90;;;;;;5001124;28;20112;-55
2024/01/03 03:38:52;;;;;;;1.08;0.80;;;7.90;99.90;;;;;;5004705;28;20026;-51
2024/01/03 03:41:19;;;;;;;0.40;0.22;;;8.00;99.90;;;;;;5003310;28;20080;-55
2024/01/03 03:43:45;;;;;;;1.17;0.30;;;7.90;99.90;;;;;;5002254;28;20096;-52
2024/01/03 03:46:11;;;;;;;2.50;0.82;;;7.90;99.90;;;;;;5002124;28;20678;-55
2024/01/03 03:48:37;;;;;;;0.77;0.40;;;7.90;99.90;;;;;;5002964;28;20034;-54
2024/01/03 03:51:03;;;;;;;2.58;0.30;;;7.90;99.90;;;;;;4999649;28;20105;-55
2024/01/03 03:53:28;;;;;;;1.23;0.75;;;7.90;99.90;;;;;;5003617;28;20081;-49
2024/01/03 03:55:54;;;;;;;4.68;0.60;;;7.80;99.90;;;;;;5004517;28;20041;-51
2024/01/03 03:58:20;;;;;;;1.70;0.47;;;7.80;99.90;;;;;;5004563;28;20026;-50
2024/01/03 04:00:45;;;;;;;0.70;0.57;;;7.80;99.90;;;;;;5001495;28;20030;-50
2024/01/03 04:03:11;;;;;;;1.50;0.30;;;7.70;99.90;;;;;;5003610;28;20486;-53
2024/01/03 04:05:37;;;;;;;0.43;0.43;;;7.70;99.90;;;;;;5005640;28;20670;-53
2024/01/03 04:08:03;;;;;;;1.42;0.40;;;7.70;99.90;;;;;;5003808;28;20051;-53
2024/01/03 04:10:29;;;;;;;2.13;0.77;;;7.70;99.90;;;;;;5004303;28;20534;-51
2024/01/03 04:12:55;;;;;;;1.80;0.52;;;7.70;99.90;;;;;;5002948;28;20022;-54
2024/01/03 04:15:24;;;;;;;2.35;0.30;;;7.70;99.90;;;;;;5005103;28;20121;-51
2024/01/03 04:17:51;;;;;;;1.95;0.47;;;7.70;99.90;;;;;;5004832;28;20036;-56
2024/01/03 04:20:16;;;;;;;2.17;0.57;;;7.60;99.90;;;;;;5003317;28;20080;-50
2024/01/03 04:22:44;;;;;;;1.83;0.40;;;7.60;99.90;;;;;;5005796;28;20034;-50
2024/01/03 04:25:10;;;;;;;2.42;0.57;;;7.60;99.90;;;;;;5002241;28;20041;-50
2024/01/03 04:27:36;;;;;;;3.05;0.55;;;7.70;99.90;;;;;;5003542;28;20048;-51
2024/01/03 04:30:03;;;;;;;1.20;0.28;;;7.60;99.90;;;;;;5001314;28;20556;-50
2024/01/03 04:32:29;;;;;;;0.47;0.40;;;7.60;99.90;;;;;;5002712;28;20025;-52
2024/01/03 04:34:55;;;;;;;0.65;0.30;;;7.60;99.90;;;;;;5002084;28;20034;-55
2024/01/03 04:37:20;;;;;;;2.03;0.52;;;7.60;99.90;;;;;;5003909;28;20033;-51
2024/01/03 04:39:46;;;;;;;3.15;0.52;;;7.70;99.90;;;;;;5004457;28;20061;-54
2024/01/03 04:42:12;;;;;;;0.43;0.32;;;7.70;99.90;;;;;;5002199;28;20037;-48
2024/01/03 04:44:37;;;;;;;1.33;0.30;;;7.60;99.90;;;;;;5001428;28;20536;-53
2024/01/03 04:47:03;;;;;;;1.80;0.30;;;7.60;99.90;;;;;;5003416;28;20030;-54
2024/01/03 04:49:29;;;;;;;2.50;0.30;;;7.60;99.90;;;;;;5001122;28;20029;-51
2024/01/03 04:51:55;;;;;;;1.70;0.30;;;7.60;99.90;;;;;;4999626;28;20477;-50
2024/01/03 04:54:20;;;;;;;1.40;0.47;;;7.60;99.90;;;;;;5001805;28;20669;-53
2024/01/03 04:56:47;;;;;;;1.15;0.20;;;7.60;99.90;;;;;;5003538;28;20033;-49
2024/01/03 04:59:12;;;;;;;0.82;0.57;;;7.60;99.90;;;;;;5003662;28;20034;-54
2024/01/03 05:01:39;;;;;;;2.40;0.30;;;7.60;99.90;;;;;;5004530;28;20030;-50
2024/01/03 05:04:05;;;;;;;0.70;0.30;;;7.60;99.90;;;;;;5004071;28;20108;-54
2024/01/03 05:06:31;;;;;;;1.85;0.55;;;7.60;99.90;;;;;;5001129;28;20130;-51
2024/01/03 05:08:56;;;;;;;0.52;0.30;;;7.60;99.90;;;;;;5001509;28;20091;-52
2024/01/03 05:11:22;;;;;;;1.25;0.32;;;7.60;99.90;;;;;;5001495;28;20080;-49
2024/01/03 05:13:47;;;;;;;1.17;0.40;;;7.60;99.90;;;;;;4997197;28;20033;-54
2024/01/03 05:16:13;;;;;;;1.67;0.50;;;7.60;99.90;;;;;;5030350;23;20485;-57
2024/01/03 05:18:39;;;;;;;0.55;0.45;;;7.60;99.90;;;;;;5019521;28;20033;-61
2024/01/03 05:21:06;;;;;;;1.85;0.25;;;7.60;99.90;;;;;;5022449;28;20650;-61
2024/01/03 05:23:32;;;;;;;0.22;0.22;;;7.60;99.90;;;;;;5018871;28;20030;-61
2024/01/03 05:25:57;;;;;;;0.52;0.40;;;7.60;99.90;;;;;;5008413;28;20482;-61
2024/01/03 05:28:23;;;;;;;0.73;0.38;;;7.60;99.90;;;;;;4996281;28;20056;-60
2024/01/03 05:30:48;;;;;;;0.28;0.17;;;7.60;99.90;;;;;;5001220;28;20037;-61
2024/01/03 05:33:15;;;;;;;0.95;0.40;;;7.70;99.90;;;;;;4999849;28;20022;-60
2024/01/03 05:35:40;;;;;;;0.32;0.32;;;7.70;99.90;;;;;;4999625;28;20129;-61
2024/01/03 05:38:07;;;;;;;0.30;0.20;;;7.70;99.90;;;;;;5002668;28;20580;-61
2024/01/03 05:40:32;;;;;;;1.38;0.35;;;7.70;99.90;;;;;;5001517;28;20022;-59
2024/01/03 05:42:58;;;;;;;1.25;0.40;;;7.70;99.90;;;;;;5000807;28;20029;-61
2024/01/03 05:45:23;;;;;;;0.57;0.22;;;7.70;99.90;;;;;;5001365;28;20026;-61
2024/01/03 05:47:49;;;;;;;1.73;0.57;;;7.70;99.90;;;;;;5002543;28;20026;-60
2024/01/03 05:50:14;;;;;;;0.20;0.20;;;7.70;99.90;;;;;;5000445;28;20033;-62
2024/01/03 05:52:40;;;;;;;1.75;0.20;;;7.70;99.90;;;;;;5001473;28;20021;-61
2024/01/03 05:55:06;;;;;;;0.90;0.20;;;7.70;99.90;;;;;;5003311;28;20103;-62
2024/01/03 05:57:33;;;;;;;0.10;0.10;;;7.70;99.90;;;;;;5001149;28;20073;-61
2024/01/03 05:59:58;;;;;;;0.32;0.20;;;7.80;99.90;;;;;;4999625;28;20105;-61
2024/01/03 06:02:24;;;;;;;0.40;0.20;;;7.80;99.90;;;;;;5003250;28;20523;-61
2024/01/03 06:04:49;;;;;;;0.73;0.35;;;7.70;99.90;;;;;;5000232;28;20033;-62
2024/01/03 06:07:15;;;;;;;1.30;0.45;;;7.80;99.90;;;;;;5003824;28;20036;-59
2024/01/03 06:09:41;;;;;;;0.80;0.50;;;7.80;99.90;;;;;;5001572;28;20109;-62
2024/01/03 06:12:07;;;;;;;0.65;0.40;;;7.80;99.90;;;;;;5003725;28;20046;-61
2024/01/03 06:14:32;;;;;;;2.67;1.15;;;7.80;99.90;;;;;;4999035;28;20041;-61
2024/01/03 06:16:58;;;;;;;2.70;1.45;;;7.80;99.90;;;;;;4998341;28;20041;-60
2024/01/03 06:19:23;;;;;;;1.70;1.00;;;7.80;99.90;;;;;;5002342;28;20049;-62
2024/01/03 06:21:49;;;;;;;0.40;0.30;;;7.80;99.90;;;;;;5001394;28;20477;-60
2024/01/03 06:24:14;;;;;;;1.05;0.30;;;7.80;99.90;;;;;;5000913;28;20501;-60
2024/01/03 06:26:40;;;;;;;1.15;0.50;;;7.80;99.90;;;;;;5002188;28;20037;-60
2024/01/03 06:29:05;;;;;;;2.25;0.90;;;7.80;99.90;;;;;;5003225;28;20081;-61
2024/01/03 06:31:31;;;;;;;0.77;0.70;;;7.80;99.90;;;;;;5002115;28;20093;-61
2024/01/03 06:33:57;;;;;;;3.08;1.00;;;7.80;99.90;;;;;;5001692;28;20026;-61
2024/01/03 06:36:22;;;;;;;2.30;0.90;;;7.70;99.90;;;;;;5000495;28;20246;-62
2024/01/03 06:38:50;;;;;;;2.20;0.50;;;7.70;99.90;;;;;;5001515;28;20446;-58
2024/01/03 06:41:15;;;;;;;0.88;0.40;;;7.70;99.90;;;;;;5000568;28;20073;-61
2024/01/03 06:43:41;;;;;;;0.45;0.38;;;7.80;99.90;;;;;;4999742;28;20485;-61
2024/01/03 06:46:07;;;;;;;1.52;0.60;;;7.70;99.90;;;;;;5000805;28;20506;-60
2024/01/03 06:48:32;;;;;;;1.15;0.50;;;7.80;99.90;;;;;;4998401;28;20034;-61
2024/01/03 06:51:02;;;;;;;1.20;0.57;;;7.70;99.90;;;;;;5000260;28;20483;-62
2024/01/03 06:53:28;;;;;;;0.73;0.30;;;7.70;99.90;;;;;;5001311;28;20117;-61
2024/01/03 06:55:53;;;;;;;1.15;0.70;;;7.80;99.90;;;;;;5002128;28;20045;-62
2024/01/03 06:58:19;;;;;;;1.45;0.30;;;7.70;99.90;;;;;;4998310;28;20053;-60
2024/01/03 07:00:45;;;;;;;0.50;0.38;;;7.80;99.90;;;;;;5001195;28;20026;-61
2024/01/03 07:03:11;;;;;;;0.45;0.40;;;7.70;99.90;;;;;;4998816;28;20060;-62
2024/01/03 07:05:36;;;;;;;1.15;0.80;;;7.70;99.90;;;;;;5003725;28;20032;-60
2024/01/03 07:08:02;;;;;;;1.30;0.40;;;7.70;99.90;;;;;;4999510;28;20026;-61
2024/01/03 07:10:31;;;;;;;0.50;0.30;;;7.80;99.90;;;;;;5002170;28;20076;-62
2024/01/03 07:12:58;;;;;;;0.80;0.28;;;7.70;99.90;;;;;;5002275;28;20022;-61
2024/01/03 07:15:26;;;;;;;0.80;0.30;;;7.70;99.90;;;;;;4998197;28;20026;-60
2024/01/03 07:17:55;;;;;;;0.75;0.35;;;7.70;99.90;;;;;;5001195;28;20029;-62
2024/01/03 07:20:24;;;;;;;0.38;0.10;;;7.70;99.90;;;;;;4998564;28;20120;-61
2024/01/03 07:22:49;;;;;;;0.60;0.25;;;7.70;99.90;;;;;;4999849;28;20025;-62
2024/01/03 07:25:15;;;;;;;1.35;0.40;;;7.70;99.90;;;;;;5000765;28;20060;-61
2024/01/03 07:27:41;;;;;;;2.50;0.70;;;7.70;99.90;;;;;;5002621;28;20040;-61
2024/01/03 07:30:08;;;;;;;0.50;0.20;;;7.70;99.90;;;;;;5004599;28;20032;-61
2024/01/03 07:32:34;;;;;;;1.05;0.30;;;7.70;99.90;;;;;;5004190;28;20053;-61
2024/01/03 07:34:59;;;;;;;0.73;0.30;;;7.70;99.90;;;;;;5003832;28;20524;-61
2024/01/03 07:37:25;;;;;;;0.28;0.28;;;7.70;99.90;;;;;;5002508;28;20026;-61
2024/01/03 07:39:51;;;;;;;0.20;0.20;;;7.70;99.90;;;;;;4999376;28;20053;-60
2024/01/03 07:42:17;;;;;;;0.68;0.22;;;7.70;99.90;;;;;;5003067;28;20117;-62
2024/01/03 07:44:43;;;;;;;1.88;0.30;;;7.80;99.90;;;;;;5002670;28;20042;-62
2024/01/03 07:47:10;;;;;;;0.38;0.22;;;7.80;99.90;;;;;;5000345;28;20140;-59
2024/01/03 07:49:39;;;;;;;0.95;0.30;;;7.80;99.90;;;;;;5000568;28;20030;-62
2024/01/03 07:52:05;;;;;;;0.40;0.10;;;7.80;99.90;;;;;;5001037;28;20034;-61
2024/01/03 07:54:31;;;;;;;0.98;0.22;;;7.80;99.90;;;;;;5000750;28;20041;-59
2024/01/03 07:56:57;;;;;;;0.47;0.20;;;7.80;99.90;;;;;;5000724;28;20526;-61
2024/01/03 07:59:23;;;;;;;0.52;0.22;;;7.80;99.90;;;;;;5003670;28;20025;-61
2024/01/03 08:01:49;;;;;;;0.47;0.30;;;7.80;99.90;;;;;;5000710;28;20113;-62
2024/01/03 08:04:18;;;;;;;0.50;0.40;;;7.80;99.90;;;;;;5002223;28;20022;-62
2024/01/03 08:06:44;;;;;;;0.30;0.20;;;7.80;99.90;;;;;;5003529;28;20068;-62
2024/01/03 08:09:10;;;;;;;2.55;0.25;;;7.80;99.90;;;;;;5000150;28;20062;-63
2024/01/03 08:11:36;;;;;;;0.55;0.40;;;7.80;99.90;;;;;;5001392;28;20029;-62
2024/01/03 08:14:02;;;;;;;0.75;0.47;;;7.80;99.90;;;;;;5001816;28;20026;-63
2024/01/03 08:16:27;;;;;;;3.63;1.15;;;7.80;99.90;;;;;;4999269;28;20407;-62
2024/01/03 08:18:53;;;;;;;3.20;1.23;;;7.80;99.90;;;;;;4998777;28;20061;-63
2024/01/03 08:21:19;;;;;;;2.78;1.10;;;7.80;99.90;;;;;;5001880;28;20037;-61
2024/01/03 08:23:45;;;;;;;4.10;1.33;;;7.80;99.90;;;;;;5003053;28;20030;-62
2024/01/03 08:26:12;;;;;;;5.63;1.02;;;7.70;99.90;;;;;;5005430;28;20026;-62
2024/01/03 08:28:40;;;;;;;7.20;1.63;;;7.80;99.90;;;;;;5000256;28;20060;-62
2024/01/03 08:31:06;;;;;;;3.97;1.13;;;7.80;99.90;;;;;;5000076;28;20618;-62
2024/01/03 08:33:34;;;;;;;6.50;1.70;;;7.70;99.90;;;;;;5002800;28;20068;-62
2024/01/03 08:36:01;;;;;;;4.88;1.42;;;7.80;99.90;;;;;;5001743;28;20506;-62
2024/01/03 08:38:26;;;;;;;3.42;1.50;;;7.70;99.90;;;;;;5000540;28;20058;-63
2024/01/03 08:40:52;;;;;;;11.25;1.77;;;7.80;99.90;;;;;;5002332;28;20069;-62
2024/01/03 08:43:18;;;;;;;5.53;1.42;;;7.70;99.90;;;;;;5002147;28;20025;-62
2024/01/03 08:45:43;;;;;;;9.75;2.03;;;7.70;99.90;;;;;;5001434;28;20545;-62
2024/01/03 08:48:09;;;;;;;3.95;1.38;;;7.80;99.90;;;;;;4998464;28;20129;-62
2024/01/03 08:50:34;;;;;;;7.30;1.77;;;7.70;99.90;;;;;;5000592;28;20117;-62
2024/01/03 08:53:00;;;;;;;8.10;1.30;;;7.80;99.90;;;;;;5000060;28;20022;-63
2024/01/03 08:55:25;;;;;;;3.17;0.98;;;7.80;99.90;;;;;;5003783;28;20278;-61
2024/01/03 08:57:56;;;;;;;7.95;1.33;;;7.90;99.90;;;;;;5001168;28;20592;-60
2024/01/03 09:00:23;;;;;;;4.15;1.30;;;7.90;99.90;;;;;;5001070;28;20052;-62
2024/01/03 09:02:48;;;;;;;4.95;1.83;;;7.90;99.90;;;;;;5001630;28;20080;-62
2024/01/03 09:05:14;;;;;;;6.20;1.80;;;7.90;99.90;;;;;;5016539;28;20048;-63
2024/01/03 09:07:42;;;;;;;6.65;1.33;;;8.00;99.90;;;;;;5003085;28;20099;-60
2024/01/03 09:10:08;;;;;;;2.92;0.93;;;8.00;99.90;;;;;;4998986;28;20033;-62
2024/01/03 09:12:33;;;;;;;8.75;1.73;;;8.00;99.90;;;;;;4999837;28;20402;-62
2024/01/03 09:14:59;;;;;;;8.23;1.63;;;8.00;99.90;;;;;;5002465;28;20073;-62
2024/01/03 09:17:24;;;;;;;4.30;0.80;;;8.00;99.90;;;;;;5002416;28;20030;-62
2024/01/03 09:19:50;;;;;;;5.47;1.23;;;8.00;99.90;;;;;;5001562;28;20033;-62
2024/01/03 09:22:16;;;;;;;8.50;1.55;;;8.00;99.90;;;;;;5001962;28;20592;-62
2024/01/03 09:24:42;;;;;;;6.03;1.20;;;8.00;99.90;;;;;;5002379;28;20042;-62
2024/01/03 09:27:07;;;;;;;7.40;1.73;;;8.00;99.90;;;;;;5000423;28;20418;-62
2024/01/03 09:29:33;;;;;;;6.85;3.00;;;8.00;99.90;;;;;;5000318;28;20030;-62
2024/01/03 09:31:58;;;;;;;5.10;1.83;;;8.00;99.90;;;;;;4997717;28;20022;-63
2024/01/03 09:34:24;;;;;;;4.40;1.63;;;8.10;99.90;;;;;;5001883;28;20088;-62
2024/01/03 09:36:52;;;;;;;5.55;1.38;;;8.00;99.90;;;;;;4998431;28;20441;-62
2024/01/03 09:39:18;;;;;;;9.43;1.65;;;8.10;99.90;;;;;;5000185;28;20040;-62
2024/01/03 09:41:44;;;;;;;5.35;1.55;;;8.10;99.90;;;;;;5000512;28;20034;-61
2024/01/03 09:44:10;;;;;;;5.45;1.50;;;8.10;99.90;;;;;;5000938;28;20062;-61
2024/01/03 09:46:36;;;;;;;7.22;1.83;;;8.10;99.90;;;;;;4999963;28;20042;-62
2024/01/03 09:49:02;;;;;;;2.80;0.98;;;8.10;99.90;;;;;;5001647;28;20097;-62
2024/01/03 09:51:27;;;;;;;7.50;1.85;;;8.10;99.90;;;;;;5000034;28;20034;-61
2024/01/03 09:53:54;;;;;;;6.35;1.42;;;8.10;99.90;;;;;;4996255;28;20100;-62
2024/01/03 09:56:20;;;;;;;4.85;1.63;;;8.10;99.90;;;;;;4999097;28;20390;-61
2024/01/03 09:58:49;;;;;;;3.97;1.33;;;8.20;99.90;;;;;;5000499;28;20037;-62
2024/01/03 10:01:15;;;;;;;4.50;1.40;;;8.20;99.90;;;;;;5001648;28;20041;-61
2024/01/03 10:03:40;;;;;;;4.32;1.23;;;8.20;99.90;;;;;;5002405;28;20061;-63
2024/01/03 10:06:15;;;;;;;2.08;0.90;;;8.30;99.90;;;;;;5001184;28;20037;-61
2024/01/03 10:08:41;;;;;;;4.90;1.10;;;8.30;99.90;;;;;;5001330;28;20103;-63
2024/01/03 10:11:22;;;;;;;5.35;0.90;;;8.30;99.90;;;;;;5002240;28;20054;-62
2024/01/03 10:13:53;;;;;;;2.70;0.57;;;8.30;99.90;;;;;;5002303;28;20198;-63
2024/01/03 10:16:23;;;;;;;5.78;0.88;;;8.40;99.90;;;;;;5000822;28;20050;-61
2024/01/03 10:19:10;;;;;;;6.03;1.25;;;8.40;99.90;;;;;;5004343;28;20057;-63
2024/01/03 10:21:38;;;;;;;3.70;1.02;;;8.40;99.90;;;;;;5000242;28;20025;-62
2024/01/03 10:24:06;;;;;;;4.05;0.90;;;8.40;99.90;;;;;;5001237;28;20564;-62
2024/01/03 10:26:33;;;;;;;5.47;1.13;;;8.50;99.90;;;;;;4998544;28;20641;-63
2024/01/03 10:29:33;;;;;;;2.92;1.23;;;8.50;99.90;;;;;;5000579;28;20026;-63
2024/01/03 10:31:58;;;;;;;4.20;1.35;;;8.50;99.90;;;;;;4987122;28;20072;-62
2024/01/03 10:34:24;;;;;;;7.88;1.13;;;8.60;99.90;;;;;;4998265;28;20073;-61
2024/01/03 10:36:52;;;;;;;5.90;1.35;;;8.60;99.90;;;;;;5003186;28;20037;-62
2024/01/03 10:39:19;;;;;;;3.88;1.00;;;8.70;99.90;;;;;;5000218;28;20092;-63
2024/01/03 10:41:49;;;;;;;8.15;1.38;;;8.70;99.90;;;;;;5000701;28;20049;-62
2024/01/03 10:44:16;;;;;;;2.33;0.82;;;8.70;99.90;;;;;;5000806;28;20238;-60
2024/01/03 10:46:42;;;;;;;4.13;0.95;;;8.80;99.90;;;;;;5000180;28;20557;-62
2024/01/03 10:49:08;;;;;;;5.55;1.08;;;8.80;99.90;;;;;;4999529;28;20022;-62
2024/01/03 10:51:42;;;;;;;2.92;0.80;;;8.70;99.90;;;;;;5001594;28;20041;-62
2024/01/03 10:54:11;;;;;;;3.92;1.20;;;8.80;99.90;;;;;;5000999;28;20080;-62
2024/01/03 10:56:37;;;;;;;4.65;1.33;;;8.80;99.90;;;;;;5001253;28;20555;-61
2024/01/03 10:59:04;;;;;;;6.53;1.60;;;8.80;99.90;;;;;;5000538;28;20115;-62
2024/01/03 11:01:36;;;;;;;4.53;1.33;;;8.70;99.90;;;;;;5002537;28;20701;-62
2024/01/03 11:04:21;;;;;;;5.85;1.02;;;8.80;99.90;;;;;;5004178;28;20065;-62
2024/01/03 11:07:15;;;;;;;5.53;1.42;;;8.70;99.90;;;;;;5004296;28;20225;-62
2024/01/03 11:09:41;;;;;;;2.58;1.02;;;8.70;99.90;;;;;;4998837;28;20450;-61
2024/01/03 11:12:10;;;;;;;1.25;1.00;;;8.80;99.90;;;;;;5006203;28;20022;-62
2024/01/03 11:14:37;;;;;;;2.38;1.15;;;8.70;99.90;;;;;;5004742;28;20564;-61
2024/01/03 11:17:03;;;;;;;4.85;1.38;;;8.80;99.90;;;;;;5028329;22;20041;-51
2024/01/03 11:19:33;;;;;;;3.45;0.68;;;8.70;99.90;;;;;;5002167;28;20030;-54
2024/01/03 11:22:02;;;;;;;3.53;1.10;;;8.70;99.90;;;;;;5002991;28;20029;-53
2024/01/03 11:24:28;;;;;;;4.68;1.27;;;8.70;99.90;;;;;;5003606;28;20113;-50
2024/01/03 11:26:56;;;;;;;3.97;1.45;;;8.70;99.90;;;;;;5005509;28;20125;-50
2024/01/03 11:29:45;;;;;;;2.53;0.65;;;8.70;99.90;;;;;;5001944;28;20022;-53
2024/01/03 11:32:14;;;;;;;2.83;0.98;;;8.60;99.90;;;;;;5003554;28;20088;-54
2024/01/03 11:34:40;;;;;;;2.95;1.10;;;8.60;99.90;;;;;;5005469;28;20095;-51
2024/01/03 11:37:28;;;;;;;4.30;0.85;;;8.60;99.90;;;;;;5003534;28;20025;-49
2024/01/03 11:39:55;;;;;;;2.53;0.80;;;8.50;99.90;;;;;;5003279;28;20125;-53
2024/01/03 11:42:38;;;;;;;1.63;1.10;;;8.60;99.90;;;;;;5003715;28;20080;-51
2024/01/03 11:45:08;;;;;;;1.77;0.50;;;8.60;99.90;;;;;;5003480;28;20105;-49
2024/01/03 11:47:49;;;;;;;1.63;0.73;;;8.50;99.90;;;;;;5002441;28;20041;-50
2024/01/03 11:50:16;;;;;;;1.90;0.65;;;8.50;99.90;;;;;;5002404;28;20034;-51
2024/01/03 11:52:45;;;;;;;2.40;0.73;;;8.50;99.90;;;;;;5002029;28;20029;-56
2024/01/03 11:55:13;;;;;;;1.92;0.70;;;8.50;99.90;;;;;;5003051;28;20025;-55
2024/01/03 11:57:43;;;;;;;4.35;0.57;;;8.50;99.90;;;;;;5003328;28;20458;-50
2024/01/03 12:00:11;;;;;;;2.40;0.93;;;8.50;99.90;;;;;;5003493;28;20101;-51
2024/01/03 12:02:37;;;;;;;4.35;0.60;;;8.60;99.90;;;;;;5001875;28;20034;-50
2024/01/03 12:05:04;;;;;;;1.70;0.80;;;8.60;99.90;;;;;;5003223;28;20092;-52
2024/01/03 12:07:33;;;;;;;5.80;1.08;;;8.60;99.90;;;;;;5002932;28;20030;-51
2024/01/03 12:10:00;;;;;;;5.85;2.90;;;8.60;99.90;;;;;;5000412;28;20041;-53
2024/01/03 12:12:26;;;;;;;27.92;13.93;;;8.60;99.90;;;;;;5005512;28;20053;-51
2024/01/03 12:14:53;;;;;;;14.18;7.00;;;8.60;99.90;;;;;;5003235;28;20018;-53
2024/01/03 12:17:28;;;;;;;5.65;2.45;;;8.60;99.90;;;;;;5004461;28;20026;-54
2024/01/03 12:20:06;;;;;;;4.38;1.75;;;8.60;99.90;;;;;;5002370;28;20026;-52
2024/01/03 12:22:31;;;;;;;5.63;2.13;;;8.60;99.90;;;;;;5004820;28;20636;-54
2024/01/03 12:24:57;;;;;;;2.35;1.17;;;8.70;99.90;;;;;;5003035;28;20049;-55
2024/01/03 12:27:23;;;;;;;4.85;1.20;;;8.70;99.90;;;;;;5004233;28;20200;-50
2024/01/03 12:30:08;;;;;;;2.47;1.05;;;8.70;99.90;;;;;;5002174;28;20449;-51
2024/01/03 12:32:35;;;;;;;1.90;0.77;;;8.70;99.90;;;;;;5002734;28;20026;-54
2024/01/03 12:35:01;;;;;;;3.50;1.88;;;8.70;99.90;;;;;;5003068;28;20025;-51
2024/01/03 12:37:28;;;;;;;4.47;1.05;;;8.70;99.90;;;;;;5001645;28;20387;-52
2024/01/03 12:39:53;;;;;;;4.35;1.33;;;8.70;99.90;;;;;;5001161;28;20034;-53
2024/01/03 12:42:19;;;;;;;2.65;0.85;;;8.70;99.90;;;;;;5005712;28;20022;-49
2024/01/03 12:44:44;;;;;;;1.85;1.00;;;8.70;99.90;;;;;;5001797;28;20562;-53
2024/01/03 12:47:11;;;;;;;4.13;1.40;;;8.60;99.90;;;;;;5001821;28;20034;-55
2024/01/03 12:49:38;;;;;;;1.00;0.60;;;8.60;99.90;;;;;;5000932;28;20071;-56
2024/01/03 12:52:05;;;;;;;3.33;1.00;;;8.60;99.90;;;;;;5001236;28;20365;-53
2024/01/03 12:54:30;;;;;;;2.67;0.88;;;8.60;99.90;;;;;;5001441;28;20026;-54
2024/01/03 12:56:56;;;;;;;3.00;1.10;;;8.50;99.90;;;;;;5002449;28;20018;-48